Time;durP1;ratioP1;P1;durP2;ratioP2;P2;SDS_P1;SDS_P2;PMS_P1;PMS_P2;Temp;Humidity;BMP_temperature;BMP_pressure;BME280_temperature;BME280_humidity;BME280_pressure;Samples;Min_cycle;Max_cycle;Signal;HPM_P1;HPM_P2
2022/05/03 00:00:36;;;;;;;;;;;12.10;77.70;;;;;;7346652;19;107205;-84
2022/05/03 00:03:14;;;;;;;;;;;12.10;76.50;;;;;;7347586;19;108230;-84
2022/05/03 00:05:44;;;;;;;;;;;12.10;76.90;;;;;;7345034;19;108948;-84
2022/05/03 00:08:31;;;;;;;;;;;12.20;76.90;;;;;;7346668;19;107157;-83
2022/05/03 00:10:58;;;;;;;;;;;12.10;76.40;;;;;;7345559;19;110430;-84
2022/05/03 00:13:28;;;;;;;;;;;12.10;77.70;;;;;;7346377;19;110120;-83
2022/05/03 00:15:57;;;;;;;;;;;12.10;77.30;;;;;;7348047;19;107167;-84
2022/05/03 00:18:24;;;;;;;;;;;12.10;77.00;;;;;;7345564;19;108129;-83
2022/05/03 00:20:52;;;;;;;;;;;12.10;76.80;;;;;;7351241;19;109118;-83
2022/05/03 00:23:19;;;;;;;;;;;12.00;77.60;;;;;;7344516;19;107586;-84
2022/05/03 00:25:47;;;;;;;;;;;12.00;77.40;;;;;;7345580;19;109180;-84
2022/05/03 00:28:14;;;;;;;;;;;11.90;79.50;;;;;;7346518;19;107067;-84
2022/05/03 00:30:42;;;;;;;;;;;11.80;78.10;;;;;;7343931;19;108063;-84
2022/05/03 00:33:09;;;;;;;;;;;11.80;79.00;;;;;;7346933;19;109378;-84
2022/05/03 00:35:36;;;;;;;;;;;11.80;79.70;;;;;;7347391;19;107071;-83
2022/05/03 00:38:04;;;;;;;;;;;11.70;79.90;;;;;;7342751;19;108111;-84
2022/05/03 00:40:32;;;;;;;;;;;11.70;78.50;;;;;;7346425;19;109214;-83
2022/05/03 00:43:18;;;;;;;;;;;11.70;78.00;;;;;;7350636;19;107128;-83
2022/05/03 00:45:48;;;;;;;;;;;11.70;78.70;;;;;;7342990;19;108221;-83
2022/05/03 00:48:30;;;;;;;;;;;11.70;80.30;;;;;;7346548;19;106979;-83
2022/05/03 00:51:08;;;;;;;;;;;11.50;80.30;;;;;;7345623;19;107524;-84
2022/05/03 00:53:48;;;;;;;;;;;11.50;81.60;;;;;;7341010;19;111042;-84
2022/05/03 00:56:33;;;;;;;;;;;11.50;81.70;;;;;;7346231;19;107668;-84
2022/05/03 00:59:00;;;;;;;;;;;11.50;81.40;;;;;;7345861;19;107207;-84
2022/05/03 01:01:47;;;;;;;;;;;11.50;82.30;;;;;;7343548;19;108407;-84
2022/05/03 01:04:14;;;;;;;;;;;11.40;81.60;;;;;;7350549;19;107510;-84
2022/05/03 01:07:08;;;;;;;;;;;11.50;81.60;;;;;;7342427;19;109279;-84
2022/05/03 01:09:38;;;;;;;;;;;11.40;81.30;;;;;;7342026;19;107351;-84
2022/05/03 01:12:05;;;;;;;;;;;11.40;80.70;;;;;;7345477;19;108166;-84
2022/05/03 01:15:03;;;;;;;;;;;11.40;82.70;;;;;;7343050;19;109432;-84
2022/05/03 01:17:30;;;;;;;;;;;11.30;82.40;;;;;;7346194;19;107656;-84
2022/05/03 01:20:05;;;;;;;;;;;11.30;82.40;;;;;;7344147;19;107903;-84
2022/05/03 01:22:51;;;;;;;;;;;11.30;81.70;;;;;;7343454;19;112367;-84
2022/05/03 01:25:30;;;;;;;;;;;11.20;85.00;;;;;;7346205;19;107202;-83
2022/05/03 01:28:15;;;;;;;;;;;11.10;83.40;;;;;;7347605;19;108395;-84
2022/05/03 01:30:47;;;;;;;;;;;11.10;85.50;;;;;;7345333;19;107970;-84
2022/05/03 01:33:18;;;;;;;;;;;11.00;84.70;;;;;;7345851;19;107900;-83
2022/05/03 01:35:46;;;;;;;;;;;11.00;85.40;;;;;;7343218;19;110363;-83
2022/05/03 01:38:13;;;;;;;;;;;11.00;86.30;;;;;;7344310;19;107165;-84
2022/05/03 01:40:53;;;;;;;;;;;10.90;86.60;;;;;;7344140;19;107876;-84
2022/05/03 01:43:39;;;;;;;;;;;10.90;86.40;;;;;;7344898;19;109265;-84
2022/05/03 01:46:10;;;;;;;;;;;10.90;87.30;;;;;;7342967;19;107083;-84
2022/05/03 01:51:52;;;;;;;;;;;10.90;88.00;;;;;;7354424;19;111744;-84
2022/05/03 01:54:38;;;;;;;;;;;10.90;87.50;;;;;;7348958;19;108221;-84
2022/05/03 01:57:11;;;;;;;;;;;10.80;87.30;;;;;;7348690;19;109522;-84
2022/05/03 01:59:56;;;;;;;;;;;10.80;86.40;;;;;;7351128;19;107136;-84
2022/05/03 02:02:35;;;;;;;;;;;10.80;86.40;;;;;;7348613;19;108561;-84
2022/05/03 02:05:06;;;;;;;;;;;10.80;88.50;;;;;;7350548;19;108988;-84
2022/05/03 02:07:38;;;;;;;;;;;10.80;88.60;;;;;;7347917;19;111325;-83
2022/05/03 02:10:06;;;;;;;;;;;10.80;87.70;;;;;;7346757;19;108381;-84
2022/05/03 02:12:33;;;;;;;;;;;10.80;86.90;;;;;;7350758;19;108870;-84
2022/05/03 02:15:09;;;;;;;;;;;10.70;88.00;;;;;;7357120;19;107161;-83
2022/05/03 02:17:36;;;;;;;;;;;10.70;87.30;;;;;;7351621;19;108430;-83
2022/05/03 02:20:14;;;;;;;;;;;10.60;87.70;;;;;;7350847;19;107263;-83
2022/05/03 02:23:07;;;;;;;;;;;10.60;87.30;;;;;;7348473;19;107861;-84
2022/05/03 02:25:34;;;;;;;;;;;10.70;88.90;;;;;;7349176;19;109257;-83
2022/05/03 02:28:24;;;;;;;;;;;10.60;89.50;;;;;;7348770;19;107246;-83
2022/05/03 02:30:51;;;;;;;;;;;10.50;89.30;;;;;;7350196;19;107749;-84
2022/05/03 02:33:37;;;;;;;;;;;10.40;91.60;;;;;;7347786;19;108488;-83
2022/05/03 02:36:07;;;;;;;;;;;10.30;90.50;;;;;;7349486;19;107485;-84
2022/05/03 02:38:37;;;;;;;;;;;10.40;90.60;;;;;;7353670;19;108702;-84
2022/05/03 02:41:07;;;;;;;;;;;10.40;91.10;;;;;;7350116;19;107157;-84
2022/05/03 02:43:36;;;;;;;;;;;10.30;91.10;;;;;;7349860;19;107750;-84
2022/05/03 02:46:06;;;;;;;;;;;10.40;90.90;;;;;;7348806;19;110961;-84
2022/05/03 02:48:38;;;;;;;;;;;10.30;90.90;;;;;;7348165;19;108325;-84
2022/05/03 02:51:07;;;;;;;;;;;10.30;91.70;;;;;;7349444;19;107800;-83
2022/05/03 02:53:46;;;;;;;;;;;10.30;91.00;;;;;;7343421;19;109264;-84
2022/05/03 02:56:25;;;;;;;;;;;10.30;90.50;;;;;;7349491;19;107296;-83
2022/05/03 02:59:18;;;;;;;;;;;10.30;90.90;;;;;;7349658;19;107911;-83
2022/05/03 03:02:04;;;;;;;;;;;10.30;91.10;;;;;;7351846;19;108979;-80
2022/05/03 03:04:32;;;;;;;;;;;10.20;92.40;;;;;;7342846;19;108151;-80
2022/05/03 03:06:59;;;;;;;;;;;10.10;92.70;;;;;;7344845;19;110230;-80
2022/05/03 03:09:34;;;;;;;;;;;10.00;92.50;;;;;;7346028;19;107821;-80
2022/05/03 03:12:11;;;;;;;;;;;10.00;92.80;;;;;;7348165;19;108572;-80
2022/05/03 03:14:46;;;;;;;;;;;10.00;94.50;;;;;;7346105;19;108982;-80
2022/05/03 03:17:18;;;;;;;;;;;9.90;94.20;;;;;;7348223;19;108300;-79
2022/05/03 03:19:48;;;;;;;;;;;9.90;94.10;;;;;;7348421;19;107876;-79
2022/05/03 03:22:16;;;;;;;;;;;9.90;94.50;;;;;;7352997;19;109302;-79
2022/05/03 03:24:43;;;;;;;;;;;9.90;94.10;;;;;;7347832;19;108562;-80
2022/05/03 03:27:11;;;;;;;;;;;9.90;93.90;;;;;;7344945;19;108993;-80
2022/05/03 03:29:38;;;;;;;;;;;9.90;94.90;;;;;;7348634;19;107410;-79
2022/05/03 03:32:06;;;;;;;;;;;9.80;94.80;;;;;;7349213;19;107893;-80
2022/05/03 03:34:34;;;;;;;;;;;9.80;94.50;;;;;;7345979;19;109227;-80
2022/05/03 03:37:01;;;;;;;;;;;9.70;94.50;;;;;;7348397;19;107572;-80
2022/05/03 03:39:30;;;;;;;;;;;9.70;94.90;;;;;;7348210;19;108085;-80
2022/05/03 03:42:06;;;;;;;;;;;9.70;94.70;;;;;;7348192;19;108892;-80
2022/05/03 03:44:33;;;;;;;;;;;9.60;94.60;;;;;;7353503;19;107346;-81
2022/05/03 03:47:00;;;;;;;;;;;9.60;94.80;;;;;;7347254;19;110182;-81
2022/05/03 03:49:29;;;;;;;;;;;9.60;95.20;;;;;;7347552;19;107088;-80
2022/05/03 03:51:59;;;;;;;;;;;9.50;95.90;;;;;;7344866;19;109104;-80
2022/05/03 03:54:26;;;;;;;;;;;9.50;96.70;;;;;;7347058;19;109122;-80
2022/05/03 03:56:54;;;;;;;;;;;9.40;96.10;;;;;;7347926;19;108322;-80
2022/05/03 03:59:22;;;;;;;;;;;9.40;96.40;;;;;;7347313;19;108550;-80
2022/05/03 04:01:49;;;;;;;;;;;9.40;96.50;;;;;;7347894;19;109108;-80
2022/05/03 04:04:17;;;;;;;;;;;9.40;96.60;;;;;;7348396;19;107519;-80
2022/05/03 04:06:44;;;;;;;;;;;9.40;96.70;;;;;;7350233;19;107773;-80
2022/05/03 04:09:11;;;;;;;;;;;9.40;97.80;;;;;;7345980;19;108278;-80
2022/05/03 04:11:44;;;;;;;;;;;9.40;98.10;;;;;;7346212;19;108669;-80
2022/05/03 04:14:12;;;;;;;;;;;9.30;97.60;;;;;;7347708;19;108922;-80
2022/05/03 04:16:39;;;;;;;;;;;9.30;97.10;;;;;;7347729;19;107233;-80
2022/05/03 04:19:06;;;;;;;;;;;9.30;98.40;;;;;;7346783;19;107775;-80
2022/05/03 04:21:34;;;;;;;;;;;9.30;98.40;;;;;;7344268;19;109491;-80
2022/05/03 04:24:01;;;;;;;;;;;9.20;99.20;;;;;;7346088;19;107325;-80
2022/05/03 04:26:28;;;;;;;;;;;9.10;99.80;;;;;;7347187;19;108268;-80
2022/05/03 04:28:59;;;;;;;;;;;9.10;99.60;;;;;;7349836;19;109343;-80
2022/05/03 04:31:26;;;;;;;;;;;9.20;98.50;;;;;;7344961;19;107753;-80
2022/05/03 04:33:54;;;;;;;;;;;9.30;98.10;;;;;;7347242;19;108909;-80
2022/05/03 04:36:21;;;;;;;;;;;9.30;98.10;;;;;;7347192;19;107322;-80
2022/05/03 04:38:48;;;;;;;;;;;9.30;98.20;;;;;;7346914;19;109021;-80
2022/05/03 04:41:15;;;;;;;;;;;9.30;98.10;;;;;;7346653;19;109142;-80
2022/05/03 04:43:42;;;;;;;;;;;9.30;97.60;;;;;;7347645;19;107080;-80
2022/05/03 04:46:09;;;;;;;;;;;9.30;99.30;;;;;;7347545;19;107295;-80
2022/05/03 04:48:36;;;;;;;;;;;9.20;99.60;;;;;;7344890;19;110266;-80
2022/05/03 04:51:03;;;;;;;;;;;9.20;99.60;;;;;;7351567;19;107154;-81
2022/05/03 04:53:30;;;;;;;;;;;9.20;99.60;;;;;;7343536;19;108747;-80
2022/05/03 04:55:57;;;;;;;;;;;9.10;99.90;;;;;;7346111;19;107041;-80
2022/05/03 04:58:24;;;;;;;;;;;9.10;99.60;;;;;;7346324;19;108325;-80
2022/05/03 05:00:51;;;;;;;;;;;9.20;99.50;;;;;;7346097;19;109197;-80
2022/05/03 05:03:18;;;;;;;;;;;9.20;99.60;;;;;;7346844;19;107528;-81
2022/05/03 05:05:44;;;;;;;;;;;9.20;99.70;;;;;;7346562;19;108744;-80
2022/05/03 05:08:11;;;;;;;;;;;9.20;99.90;;;;;;7342946;19;109560;-81
2022/05/03 05:10:38;;;;;;;;;;;9.30;99.40;;;;;;7341061;19;107310;-80
2022/05/03 05:13:05;;;;;;;;;;;9.40;99.80;;;;;;7348182;19;108134;-81
2022/05/03 05:15:36;;;;;;;;;;;9.40;99.90;;;;;;7345316;19;107537;-81
2022/05/03 05:18:03;;;;;;;;;;;9.40;99.90;;;;;;7346392;19;108715;-81
2022/05/03 05:20:30;;;;;;;;;;;9.40;99.90;;;;;;7344091;19;108169;-80
2022/05/03 05:22:57;;;;;;;;;;;9.40;99.90;;;;;;7342894;19;107019;-81
2022/05/03 05:25:44;;;;;;;;;;;9.50;99.50;;;;;;7344812;19;109785;-80
2022/05/03 05:28:11;;;;;;;;;;;9.60;99.90;;;;;;7342241;19;108806;-80
2022/05/03 05:30:38;;;;;;;;;;;9.70;99.20;;;;;;7343849;19;107289;-81
2022/05/03 05:33:05;;;;;;;;;;;9.80;99.50;;;;;;7351148;19;107319;-80
2022/05/03 05:35:32;;;;;;;;;;;9.90;99.30;;;;;;7344985;19;108683;-81
2022/05/03 05:37:59;;;;;;;;;;;9.90;98.80;;;;;;7341816;19;107172;-83
2022/05/03 05:40:26;;;;;;;;;;;10.00;99.30;;;;;;7342835;19;110122;-82
2022/05/03 05:42:53;;;;;;;;;;;10.10;98.30;;;;;;7343923;19;107031;-82
2022/05/03 05:45:20;;;;;;;;;;;10.10;99.70;;;;;;7344069;19;108580;-82
2022/05/03 05:47:46;;;;;;;;;;;10.10;98.60;;;;;;7341601;19;108172;-81
2022/05/03 05:50:14;;;;;;;;;;;10.10;99.50;;;;;;7344314;19;107238;-82
2022/05/03 05:55:26;;;;;;;;;;;10.30;98.40;;;;;;7348291;19;108812;-81
2022/05/03 05:57:53;;;;;;;;;;;10.40;99.00;;;;;;7342900;19;107770;-82
2022/05/03 06:00:20;;;;;;;;;;;10.50;98.50;;;;;;7342684;19;109375;-82
2022/05/03 06:02:47;;;;;;;;;;;10.50;99.00;;;;;;7344854;19;107285;-81
2022/05/03 06:05:14;;;;;;;;;;;10.50;99.00;;;;;;7344947;19;108156;-82
2022/05/03 06:07:41;;;;;;;;;;;10.60;98.70;;;;;;7342282;19;108540;-81
2022/05/03 06:10:08;;;;;;;;;;;10.70;98.90;;;;;;7340050;19;107200;-83
2022/05/03 06:12:35;;;;;;;;;;;10.70;98.40;;;;;;7342135;19;107477;-82
2022/05/03 06:15:02;;;;;;;;;;;10.70;98.10;;;;;;7343818;19;108981;-81
2022/05/03 06:17:29;;;;;;;;;;;10.70;97.90;;;;;;7348175;19;107081;-81
2022/05/03 06:19:57;;;;;;;;;;;10.90;97.40;;;;;;7344470;19;109175;-81
2022/05/03 06:22:23;;;;;;;;;;;11.00;97.30;;;;;;7343212;19;107157;-82
2022/05/03 06:24:51;;;;;;;;;;;11.00;96.80;;;;;;7343834;19;107992;-82
2022/05/03 06:27:18;;;;;;;;;;;11.10;96.70;;;;;;7339700;19;109199;-82
2022/05/03 06:29:45;;;;;;;;;;;11.20;96.10;;;;;;7340878;19;107293;-81
2022/05/03 06:32:12;;;;;;;;;;;11.30;96.00;;;;;;7344373;19;107838;-81
2022/05/03 06:34:39;;;;;;;;;;;11.40;95.00;;;;;;7342381;19;109391;-81
2022/05/03 06:37:06;;;;;;;;;;;11.40;95.10;;;;;;7350361;19;107581;-82
2022/05/03 06:39:36;;;;;;;;;;;11.40;94.70;;;;;;7352604;19;108168;-81
2022/05/03 06:42:05;;;;;;;;;;;11.50;94.20;;;;;;7350450;19;107451;-82
2022/05/03 06:44:32;;;;;;;;;;;11.60;93.60;;;;;;7350600;19;108128;-82
2022/05/03 06:46:59;;;;;;;;;;;11.70;93.90;;;;;;7348218;19;108877;-81
2022/05/03 06:49:26;;;;;;;;;;;11.80;93.40;;;;;;7347729;19;108007;-81
2022/05/03 06:51:52;;;;;;;;;;;11.80;93.30;;;;;;7348524;19;107847;-81
2022/05/03 06:54:19;;;;;;;;;;;11.90;93.20;;;;;;7348079;19;108322;-80
2022/05/03 06:56:46;;;;;;;;;;;12.00;92.20;;;;;;7349873;19;107471;-82
2022/05/03 06:59:13;;;;;;;;;;;12.10;92.70;;;;;;7348991;19;107756;-82
2022/05/03 07:01:40;;;;;;;;;;;12.20;90.90;;;;;;7354609;19;108808;-82
2022/05/03 07:04:11;;;;;;;;;;;12.20;92.10;;;;;;7349183;19;107178;-82
2022/05/03 07:06:38;;;;;;;;;;;12.40;91.50;;;;;;7346739;19;109337;-82
2022/05/03 07:09:05;;;;;;;;;;;12.50;90.80;;;;;;7347819;19;107100;-83
2022/05/03 07:11:32;;;;;;;;;;;12.70;91.60;;;;;;7347985;19;107977;-81
2022/05/03 07:14:00;;;;;;;;;;;12.80;91.00;;;;;;7343897;19;109216;-82
2022/05/03 07:16:27;;;;;;;;;;;12.90;89.50;;;;;;7348723;19;107156;-81
2022/05/03 07:24:25;;;;;;;;;;;13.30;88.80;;;;;;7354600;19;106846;-82
2022/05/03 07:26:58;;;;;;;;;;;13.30;82.20;;;;;;7346285;19;109291;-81
2022/05/03 07:29:25;;;;;;;;;;;13.50;85.10;;;;;;7348007;19;107797;-81
2022/05/03 07:31:53;;;;;;;;;;;13.60;81.50;;;;;;7346421;19;108059;-81
2022/05/03 07:34:20;;;;;;;;;;;13.50;79.20;;;;;;7348563;19;109042;-81
2022/05/03 07:36:47;;;;;;;;;;;13.40;78.40;;;;;;7347688;19;107300;-82
2022/05/03 07:39:13;;;;;;;;;;;13.40;79.40;;;;;;7348848;19;108644;-82
2022/05/03 07:41:40;;;;;;;;;;;13.60;82.30;;;;;;7348494;19;108949;-82
2022/05/03 07:44:07;;;;;;;;;;;13.70;81.70;;;;;;7353989;19;108339;-81
2022/05/03 07:46:34;;;;;;;;;;;13.90;81.80;;;;;;7346717;19;108918;-81
2022/05/03 07:49:02;;;;;;;;;;;14.10;81.80;;;;;;7347989;19;107156;-82
2022/05/03 07:51:28;;;;;;;;;;;14.10;78.90;;;;;;7348297;19;108053;-81
2022/05/03 07:53:55;;;;;;;;;;;14.10;80.30;;;;;;7346903;19;109088;-82
2022/05/03 07:56:22;;;;;;;;;;;14.30;80.40;;;;;;7347066;19;107348;-82
2022/05/03 07:58:49;;;;;;;;;;;14.40;78.30;;;;;;7347861;19;107405;-82
2022/05/03 08:01:16;;;;;;;;;;;14.40;78.20;;;;;;7345797;19;109361;-81
2022/05/03 08:03:43;;;;;;;;;;;14.50;78.80;;;;;;7347756;19;107080;-82
2022/05/03 08:06:10;;;;;;;;;;;14.50;79.00;;;;;;7351679;19;107252;-82
2022/05/03 08:08:37;;;;;;;;;;;14.50;77.90;;;;;;7345830;19;107949;-82
2022/05/03 08:11:04;;;;;;;;;;;14.50;79.10;;;;;;7347014;19;107847;-82
2022/05/03 08:13:31;;;;;;;;;;;14.60;79.70;;;;;;7345486;19;109604;-81
2022/05/03 08:15:58;;;;;;;;;;;14.70;79.40;;;;;;7347619;19;107272;-81
2022/05/03 08:18:25;;;;;;;;;;;14.80;78.70;;;;;;7347310;19;112037;-82
2022/05/03 08:20:53;;;;;;;;;;;14.90;80.10;;;;;;7345665;19;108909;-81
2022/05/03 08:23:20;;;;;;;;;;;15.00;79.00;;;;;;7344670;19;108567;-82
2022/05/03 08:25:47;;;;;;;;;;;15.00;80.50;;;;;;7344444;19;108248;-81
2022/05/03 08:28:14;;;;;;;;;;;15.40;79.70;;;;;;7350922;19;107846;-82
2022/05/03 08:30:41;;;;;;;;;;;15.40;78.70;;;;;;7345498;19;107823;-81
2022/05/03 08:33:08;;;;;;;;;;;15.40;78.20;;;;;;7346902;19;108792;-81
2022/05/03 08:35:35;;;;;;;;;;;15.40;77.70;;;;;;7346055;19;108197;-81
2022/05/03 08:43:46;;;;;;;;;;;15.60;81.70;;;;;;7344303;19;107877;-81
2022/05/03 08:46:15;;;;;;;;;;;15.70;79.80;;;;;;7345216;19;111417;-81
2022/05/03 08:48:42;;;;;;;;;;;15.80;78.00;;;;;;7345268;19;108902;-81
2022/05/03 08:51:12;;;;;;;;;;;15.90;81.20;;;;;;7352460;19;107558;-82
2022/05/03 08:53:40;;;;;;;;;;;15.90;78.50;;;;;;7342073;19;109017;-81
2022/05/03 08:56:07;;;;;;;;;;;15.90;79.50;;;;;;7345754;19;107420;-81
2022/05/03 08:58:34;;;;;;;;;;;16.00;80.60;;;;;;7345051;19;108608;-82
2022/05/03 09:01:03;;;;;;;;;;;16.20;80.00;;;;;;7345969;19;107937;-81
2022/05/03 09:03:30;;;;;;;;;;;16.30;79.80;;;;;;7344431;19;107251;-82
2022/05/03 09:05:57;;;;;;;;;;;16.40;82.10;;;;;;7344455;19;108809;-82
2022/05/03 09:08:24;;;;;;;;;;;16.60;79.20;;;;;;7344902;19;108122;-81
2022/05/03 09:10:51;;;;;;;;;;;16.50;78.80;;;;;;7342392;19;107091;-82
2022/05/03 09:13:38;;;;;;;;;;;16.40;79.00;;;;;;7350333;19;107962;-81
2022/05/03 09:16:12;;;;;;;;;;;16.40;78.90;;;;;;7343245;19;108307;-81
2022/05/03 09:18:39;;;;;;;;;;;16.40;79.00;;;;;;7345593;19;108211;-81
2022/05/03 09:24:05;;;;;;;;;;;16.50;80.40;;;;;;7345176;19;107503;-81
2022/05/03 09:26:33;;;;;;;;;;;16.70;81.40;;;;;;7342905;19;107907;-81
2022/05/03 09:29:08;;;;;;;;;;;16.90;81.10;;;;;;7342709;19;109323;-81
2022/05/03 09:31:36;;;;;;;;;;;16.90;78.70;;;;;;7345775;19;107286;-81
2022/05/03 09:34:22;;;;;;;;;;;16.80;79.30;;;;;;7348489;19;111699;-80
2022/05/03 09:36:51;;;;;;;;;;;16.90;80.10;;;;;;7343855;19;107408;-81
2022/05/03 09:39:43;;;;;;;;;;;17.10;81.20;;;;;;7345132;19;108333;-82
2022/05/03 09:42:11;;;;;;;;;;;17.20;81.30;;;;;;7341817;19;109202;-82
2022/05/03 09:44:50;;;;;;;;;;;17.40;80.80;;;;;;7344436;19;108058;-82
2022/05/03 09:47:19;;;;;;;;;;;17.40;79.20;;;;;;7345204;19;108378;-83
2022/05/03 09:49:45;;;;;;;;;;;17.50;79.90;;;;;;7340755;19;108001;-82
2022/05/03 09:52:30;;;;;;;;;;;17.60;79.80;;;;;;7341430;19;107528;-83
2022/05/03 09:55:03;;;;;;;;;;;17.70;80.50;;;;;;7344081;19;107228;-82
2022/05/03 09:57:32;;;;;;;;;;;17.70;80.40;;;;;;7349900;19;108711;-82
2022/05/03 09:59:59;;;;;;;;;;;17.70;78.30;;;;;;7344999;19;109937;-83
2022/05/03 10:02:29;;;;;;;;;;;17.60;78.80;;;;;;7343235;19;108962;-83
2022/05/03 10:04:58;;;;;;;;;;;17.60;80.40;;;;;;7341760;19;108329;-83
2022/05/03 10:07:26;;;;;;;;;;;17.60;79.00;;;;;;7343494;19;107093;-82
2022/05/03 10:09:53;;;;;;;;;;;17.60;78.30;;;;;;7341508;19;109397;-82
2022/05/03 10:12:20;;;;;;;;;;;17.70;80.20;;;;;;7348850;19;107548;-83
2022/05/03 10:14:48;;;;;;;;;;;17.80;79.70;;;;;;7350480;19;108590;-83
2022/05/03 10:20:38;;;;;;;;;;;17.70;79.00;;;;;;7354924;19;107163;-83
2022/05/03 10:23:32;;;;;;;;;;;17.80;79.40;;;;;;7349847;19;109046;-82
2022/05/03 10:26:00;;;;;;;;;;;18.00;79.50;;;;;;7349012;19;107721;-82
2022/05/03 10:28:46;;;;;;;;;;;17.90;79.00;;;;;;7349019;19;107805;-83
2022/05/03 10:31:13;;;;;;;;;;;17.90;77.90;;;;;;7346254;19;108975;-83
2022/05/03 10:33:41;;;;;;;;;;;18.00;80.10;;;;;;7351221;19;107573;-83
2022/05/03 10:36:27;;;;;;;;;;;18.20;78.80;;;;;;7349054;19;107792;-83
2022/05/03 10:39:02;;;;;;;;;;;18.30;76.90;;;;;;7347796;19;109308;-83
2022/05/03 10:41:29;;;;;;;;;;;18.40;79.30;;;;;;7350484;19;107220;-82
2022/05/03 10:43:56;;;;;;;;;;;18.60;78.40;;;;;;7354319;19;107878;-83
2022/05/03 10:46:23;;;;;;;;;;;18.80;78.90;;;;;;7348100;19;107573;-83
2022/05/03 10:49:15;;;;;;;;;;;19.00;76.30;;;;;;7349733;19;107804;-83
2022/05/03 10:51:42;;;;;;;;;;;19.00;75.40;;;;;;7347113;19;108441;-83
2022/05/03 10:54:09;;;;;;;;;;;19.20;76.70;;;;;;7347691;19;107301;-84
2022/05/03 10:56:56;;;;;;;;;;;19.30;74.40;;;;;;7349599;19;107510;-84
2022/05/03 10:59:23;;;;;;;;;;;19.30;72.60;;;;;;7346823;19;109282;-83
2022/05/03 11:01:56;;;;;;;;;;;19.40;77.10;;;;;;7350142;19;107071;-82
2022/05/03 11:04:24;;;;;;;;;;;19.60;76.00;;;;;;7348649;19;108565;-81
2022/05/03 11:06:51;;;;;;;;;;;19.60;72.80;;;;;;7353849;19;109565;-82
2022/05/03 11:09:28;;;;;;;;;;;19.70;72.90;;;;;;7348658;19;108230;-83
2022/05/03 11:11:57;;;;;;;;;;;19.70;73.30;;;;;;7348894;19;108185;-82
2022/05/03 11:14:27;;;;;;;;;;;19.50;72.40;;;;;;7350101;19;107049;-83
2022/05/03 11:17:06;;;;;;;;;;;19.40;73.40;;;;;;7347040;19;107924;-83
2022/05/03 11:19:34;;;;;;;;;;;19.50;73.80;;;;;;7348679;19;109659;-83
2022/05/03 11:22:08;;;;;;;;;;;19.50;74.10;;;;;;7349546;19;107182;-82
2022/05/03 11:24:36;;;;;;;;;;;19.50;74.40;;;;;;7349333;19;107672;-83
2022/05/03 11:27:05;;;;;;;;;;;19.60;75.10;;;;;;7347528;19;109329;-83
2022/05/03 11:29:34;;;;;;;;;;;19.80;74.00;;;;;;7348483;19;109176;-83
2022/05/03 11:32:01;;;;;;;;;;;20.10;73.70;;;;;;7347912;19;108314;-83
2022/05/03 11:34:29;;;;;;;;;;;20.30;72.00;;;;;;7348490;19;107433;-83
2022/05/03 11:36:56;;;;;;;;;;;20.30;69.10;;;;;;7346504;19;108000;-83
2022/05/03 11:39:23;;;;;;;;;;;20.00;70.40;;;;;;7345727;19;109023;-83
2022/05/03 11:41:50;;;;;;;;;;;20.20;71.40;;;;;;7347045;19;107610;-84
2022/05/03 11:44:17;;;;;;;;;;;20.30;70.90;;;;;;7347658;19;108138;-83
2022/05/03 11:46:45;;;;;;;;;;;20.30;70.00;;;;;;7347908;19;107937;-83
2022/05/03 11:49:13;;;;;;;;;;;20.10;71.20;;;;;;7352348;19;107208;-84
2022/05/03 11:57:27;;;;;;;;;;;20.30;71.10;;;;;;7348617;19;108260;-83
2022/05/03 11:59:55;;;;;;;;;;;20.00;70.40;;;;;;7348721;19;108977;-83
2022/05/03 12:02:23;;;;;;;;;;;20.00;71.70;;;;;;7348048;19;107050;-83
2022/05/03 12:05:02;;;;;;;;;;;20.20;71.40;;;;;;7348989;19;108110;-82
2022/05/03 12:07:30;;;;;;;;;;;20.10;69.70;;;;;;7347305;19;109154;-83
2022/05/03 12:09:57;;;;;;;;;;;19.90;70.30;;;;;;7345436;19;107155;-83
2022/05/03 12:12:44;;;;;;;;;;;19.90;70.70;;;;;;7353666;19;108181;-83
2022/05/03 12:15:21;;;;;;;;;;;19.80;71.40;;;;;;7347623;19;107171;-83
2022/05/03 12:17:51;;;;;;;;;;;20.10;74.30;;;;;;7349320;19;107888;-83
2022/05/03 12:20:18;;;;;;;;;;;20.50;72.70;;;;;;7347570;19;109429;-84
2022/05/03 12:22:45;;;;;;;;;;;20.80;72.30;;;;;;7345856;19;107817;-83
2022/05/03 12:25:25;;;;;;;;;;;20.60;70.70;;;;;;7344773;19;110604;-83
2022/05/03 12:27:52;;;;;;;;;;;20.60;72.30;;;;;;7346195;19;108956;-84
2022/05/03 12:30:19;;;;;;;;;;;21.00;72.60;;;;;;7346899;19;108105;-84
2022/05/03 12:32:47;;;;;;;;;;;21.30;71.50;;;;;;7344783;19;108215;-84
2022/05/03 12:35:14;;;;;;;;;;;21.50;71.30;;;;;;7350304;19;108918;-83
2022/05/03 12:37:49;;;;;;;;;;;21.50;70.30;;;;;;7345044;19;108045;-83
2022/05/03 12:40:23;;;;;;;;;;;21.50;69.90;;;;;;7344749;19;108210;-82
2022/05/03 12:42:50;;;;;;;;;;;21.40;69.80;;;;;;7347083;19;107090;-83
2022/05/03 12:45:20;;;;;;;;;;;21.00;69.00;;;;;;7348190;19;108135;-83
2022/05/03 12:47:48;;;;;;;;;;;20.60;70.80;;;;;;7346643;19;109142;-83
2022/05/03 12:50:15;;;;;;;;;;;20.50;70.80;;;;;;7347598;19;107292;-83
2022/05/03 12:52:42;;;;;;;;;;;20.70;72.10;;;;;;7347108;19;108121;-83
2022/05/03 12:55:09;;;;;;;;;;;21.00;70.40;;;;;;7344937;19;109155;-83
2022/05/03 13:00:29;;;;;;;;;;;21.10;68.20;;;;;;7345841;19;109371;-83
2022/05/03 13:03:00;;;;;;;;;;;21.40;68.50;;;;;;7343175;19;107447;-83
2022/05/03 13:05:27;;;;;;;;;;;21.50;66.50;;;;;;7345955;19;107724;-84
2022/05/03 13:07:54;;;;;;;;;;;21.70;68.20;;;;;;7342086;19;108962;-83
2022/05/03 13:10:21;;;;;;;;;;;21.80;66.10;;;;;;7345229;19;107470;-83
2022/05/03 13:12:48;;;;;;;;;;;21.60;66.40;;;;;;7343788;19;108278;-84
2022/05/03 13:15:15;;;;;;;;;;;21.40;65.50;;;;;;7345998;19;112158;-84
2022/05/03 13:17:46;;;;;;;;;;;21.10;66.00;;;;;;7345231;19;107037;-84
2022/05/03 13:20:13;;;;;;;;;;;21.10;68.10;;;;;;7349161;19;108085;-82
2022/05/03 13:22:40;;;;;;;;;;;21.20;67.80;;;;;;7345084;19;107964;-82
2022/05/03 13:25:07;;;;;;;;;;;21.40;67.40;;;;;;7345737;19;107587;-83
2022/05/03 13:27:34;;;;;;;;;;;21.20;65.80;;;;;;7343299;19;109236;-82
2022/05/03 13:30:01;;;;;;;;;;;21.20;66.10;;;;;;7345256;19;107278;-82
2022/05/03 13:32:29;;;;;;;;;;;21.20;64.40;;;;;;7345448;19;107166;-83
2022/05/03 13:34:56;;;;;;;;;;;21.40;65.00;;;;;;7344005;19;108425;-83
2022/05/03 13:42:56;;;;;;;;;;;22.00;65.00;;;;;;7350496;19;109200;-83
2022/05/03 13:45:23;;;;;;;;;;;22.10;65.30;;;;;;7345916;19;107804;-83
2022/05/03 13:48:10;;;;;;;;;;;22.10;65.70;;;;;;7350120;19;110584;-83
2022/05/03 13:50:38;;;;;;;;;;;22.20;65.40;;;;;;7351192;19;106955;-83
2022/05/03 13:53:07;;;;;;;;;;;22.00;65.30;;;;;;7349966;19;107865;-83
2022/05/03 13:55:38;;;;;;;;;;;21.80;66.20;;;;;;7348863;19;109155;-83
2022/05/03 13:58:09;;;;;;;;;;;21.80;66.50;;;;;;7351028;19;106855;-83
2022/05/03 14:00:37;;;;;;;;;;;21.50;66.30;;;;;;7351295;19;108331;-84
2022/05/03 14:03:07;;;;;;;;;;;21.40;67.50;;;;;;7355953;19;108707;-83
2022/05/03 14:05:34;;;;;;;;;;;21.30;68.60;;;;;;7351318;19;107942;-83
2022/05/03 14:08:01;;;;;;;;;;;21.30;69.10;;;;;;7349783;19;108725;-83
2022/05/03 14:10:30;;;;;;;;;;;21.30;69.10;;;;;;7350730;19;107070;-82
2022/05/03 14:12:57;;;;;;;;;;;21.20;69.80;;;;;;7349787;19;107868;-83
2022/05/03 14:15:24;;;;;;;;;;;21.10;70.30;;;;;;7347534;19;108908;-83
2022/05/03 14:17:51;;;;;;;;;;;21.00;71.00;;;;;;7351027;19;107986;-83
2022/05/03 14:20:18;;;;;;;;;;;21.20;70.40;;;;;;7350931;19;107409;-83
2022/05/03 14:22:45;;;;;;;;;;;21.10;70.00;;;;;;7346856;19;108934;-83
2022/05/03 14:25:14;;;;;;;;;;;21.10;70.90;;;;;;7354700;19;107449;-81
2022/05/03 14:27:41;;;;;;;;;;;21.00;71.80;;;;;;7350891;19;108955;-80
2022/05/03 14:30:12;;;;;;;;;;;21.00;72.20;;;;;;7350842;19;107631;-82
2022/05/03 14:32:39;;;;;;;;;;;21.10;72.40;;;;;;7347845;19;107872;-81
2022/05/03 14:35:06;;;;;;;;;;;21.30;71.10;;;;;;7350923;19;108957;-81
2022/05/03 14:37:33;;;;;;;;;;;21.40;71.20;;;;;;7349146;19;110000;-81
2022/05/03 14:40:01;;;;;;;;;;;21.30;71.50;;;;;;7351447;19;107862;-84
2022/05/03 14:42:28;;;;;;;;;;;21.10;70.60;;;;;;7348324;19;108873;-82
2022/05/03 14:44:55;;;;;;;;;;;20.90;70.90;;;;;;7348667;19;107485;-82
2022/05/03 14:47:23;;;;;;;;;;;20.80;72.50;;;;;;7355090;19;108042;-82
2022/05/03 14:49:49;;;;;;;;;;;20.60;72.20;;;;;;7349678;19;107410;-82
2022/05/03 14:52:18;;;;;;;;;;;20.80;72.20;;;;;;7345681;19;108277;-81
2022/05/03 14:54:46;;;;;;;;;;;20.70;72.60;;;;;;7350316;19;107936;-82
2022/05/03 15:02:54;;;;;;;;;;;20.90;73.80;;;;;;7350013;19;109200;-82
2022/05/03 15:05:27;;;;;;;;;;;21.20;73.70;;;;;;7350726;19;108023;-83